sensor_id;sensor_type;location;lat;lon;timestamp;P1;durP1;ratioP1;P2;durP2;ratioP2
11681;SDS011;5897;42.640;23.310;2023-02-28T00:01:18;9.82;;;8.00;;
11681;SDS011;5897;42.640;23.310;2023-02-28T00:03:45;9.70;;;7.88;;
11681;SDS011;5897;42.640;23.310;2023-02-28T00:06:12;10.82;;;8.15;;
11681;SDS011;5897;42.640;23.310;2023-02-28T00:08:39;11.63;;;8.05;;
11681;SDS011;5897;42.640;23.310;2023-02-28T00:11:08;10.07;;;6.93;;
11681;SDS011;5897;42.640;23.310;2023-02-28T00:13:38;7.53;;;6.15;;
11681;SDS011;5897;42.640;23.310;2023-02-28T00:16:07;7.53;;;6.72;;
11681;SDS011;5897;42.640;23.310;2023-02-28T00:18:35;8.60;;;6.88;;
11681;SDS011;5897;42.640;23.310;2023-02-28T00:21:02;7.95;;;5.78;;
11681;SDS011;5897;42.640;23.310;2023-02-28T00:23:29;9.02;;;5.95;;
11681;SDS011;5897;42.640;23.310;2023-02-28T00:25:56;9.18;;;5.70;;
11681;SDS011;5897;42.640;23.310;2023-02-28T00:28:24;9.15;;;6.03;;
11681;SDS011;5897;42.640;23.310;2023-02-28T00:30:51;7.43;;;5.60;;
11681;SDS011;5897;42.640;23.310;2023-02-28T00:33:18;7.63;;;5.75;;
11681;SDS011;5897;42.640;23.310;2023-02-28T00:35:45;8.23;;;5.82;;
11681;SDS011;5897;42.640;23.310;2023-02-28T00:38:13;6.43;;;5.28;;
11681;SDS011;5897;42.640;23.310;2023-02-28T00:40:40;7.78;;;5.97;;
11681;SDS011;5897;42.640;23.310;2023-02-28T00:43:07;7.15;;;6.38;;
11681;SDS011;5897;42.640;23.310;2023-02-28T00:45:36;7.00;;;6.30;;
11681;SDS011;5897;42.640;23.310;2023-02-28T00:48:03;8.35;;;6.85;;
11681;SDS011;5897;42.640;23.310;2023-02-28T00:50:30;9.68;;;6.88;;
11681;SDS011;5897;42.640;23.310;2023-02-28T00:52:57;7.13;;;6.20;;
11681;SDS011;5897;42.640;23.310;2023-02-28T00:55:24;7.72;;;6.28;;
11681;SDS011;5897;42.640;23.310;2023-02-28T00:57:51;9.52;;;6.95;;
11681;SDS011;5897;42.640;23.310;2023-02-28T01:00:18;7.28;;;6.50;;
11681;SDS011;5897;42.640;23.310;2023-02-28T01:02:46;9.90;;;7.45;;
11681;SDS011;5897;42.640;23.310;2023-02-28T01:05:13;9.60;;;7.63;;
11681;SDS011;5897;42.640;23.310;2023-02-28T01:07:40;11.70;;;8.27;;
11681;SDS011;5897;42.640;23.310;2023-02-28T01:10:08;10.07;;;7.63;;
11681;SDS011;5897;42.640;23.310;2023-02-28T01:12:35;8.43;;;7.32;;
11681;SDS011;5897;42.640;23.310;2023-02-28T01:15:03;9.65;;;8.65;;
11681;SDS011;5897;42.640;23.310;2023-02-28T01:17:31;11.35;;;8.18;;
11681;SDS011;5897;42.640;23.310;2023-02-28T01:19:59;11.02;;;8.95;;
11681;SDS011;5897;42.640;23.310;2023-02-28T01:22:26;10.50;;;9.18;;
11681;SDS011;5897;42.640;23.310;2023-02-28T01:24:53;12.73;;;8.98;;
11681;SDS011;5897;42.640;23.310;2023-02-28T01:27:20;13.90;;;11.00;;
11681;SDS011;5897;42.640;23.310;2023-02-28T01:29:47;14.02;;;10.68;;
11681;SDS011;5897;42.640;23.310;2023-02-28T01:32:14;15.82;;;12.55;;
11681;SDS011;5897;42.640;23.310;2023-02-28T01:34:41;18.42;;;11.93;;
11681;SDS011;5897;42.640;23.310;2023-02-28T01:37:09;17.63;;;12.38;;
11681;SDS011;5897;42.640;23.310;2023-02-28T01:39:36;17.58;;;13.10;;
11681;SDS011;5897;42.640;23.310;2023-02-28T01:42:03;16.02;;;12.95;;
11681;SDS011;5897;42.640;23.310;2023-02-28T01:47:24;17.23;;;12.80;;
11681;SDS011;5897;42.640;23.310;2023-02-28T01:49:54;20.02;;;14.95;;
11681;SDS011;5897;42.640;23.310;2023-02-28T01:52:23;20.73;;;14.95;;
11681;SDS011;5897;42.640;23.310;2023-02-28T01:54:51;18.40;;;14.63;;
11681;SDS011;5897;42.640;23.310;2023-02-28T01:57:20;18.98;;;14.95;;
11681;SDS011;5897;42.640;23.310;2023-02-28T01:59:52;19.42;;;14.57;;
11681;SDS011;5897;42.640;23.310;2023-02-28T02:02:23;21.85;;;15.57;;
11681;SDS011;5897;42.640;23.310;2023-02-28T02:04:53;21.65;;;15.30;;
11681;SDS011;5897;42.640;23.310;2023-02-28T02:07:24;20.92;;;15.35;;
11681;SDS011;5897;42.640;23.310;2023-02-28T02:09:59;20.95;;;14.68;;
11681;SDS011;5897;42.640;23.310;2023-02-28T02:12:29;24.10;;;16.00;;
11681;SDS011;5897;42.640;23.310;2023-02-28T02:15:09;23.13;;;17.58;;
11681;SDS011;5897;42.640;23.310;2023-02-28T02:17:43;32.67;;;18.58;;
11681;SDS011;5897;42.640;23.310;2023-02-28T02:26:28;37.70;;;20.27;;
11681;SDS011;5897;42.640;23.310;2023-02-28T02:29:28;26.75;;;21.33;;
11681;SDS011;5897;42.640;23.310;2023-02-28T02:35:11;31.38;;;21.08;;
11681;SDS011;5897;42.640;23.310;2023-02-28T02:37:42;82.25;;;22.75;;
11681;SDS011;5897;42.640;23.310;2023-02-28T02:40:14;29.98;;;21.73;;
11681;SDS011;5897;42.640;23.310;2023-02-28T02:42:46;125.72;;;20.80;;
11681;SDS011;5897;42.640;23.310;2023-02-28T02:45:18;30.80;;;20.27;;
11681;SDS011;5897;42.640;23.310;2023-02-28T02:47:49;24.55;;;19.42;;
11681;SDS011;5897;42.640;23.310;2023-02-28T02:50:19;28.83;;;20.15;;
11681;SDS011;5897;42.640;23.310;2023-02-28T02:52:52;32.63;;;19.92;;
11681;SDS011;5897;42.640;23.310;2023-02-28T02:55:23;28.33;;;19.67;;
11681;SDS011;5897;42.640;23.310;2023-02-28T02:57:51;48.55;;;19.40;;
11681;SDS011;5897;42.640;23.310;2023-02-28T03:00:22;30.30;;;19.33;;
11681;SDS011;5897;42.640;23.310;2023-02-28T03:02:52;191.93;;;21.02;;
11681;SDS011;5897;42.640;23.310;2023-02-28T03:05:23;25.65;;;19.42;;
11681;SDS011;5897;42.640;23.310;2023-02-28T03:07:52;62.80;;;19.50;;
11681;SDS011;5897;42.640;23.310;2023-02-28T03:10:29;81.60;;;20.08;;
11681;SDS011;5897;42.640;23.310;2023-02-28T03:13:05;80.43;;;19.02;;
11681;SDS011;5897;42.640;23.310;2023-02-28T03:15:49;98.47;;;19.08;;
11681;SDS011;5897;42.640;23.310;2023-02-28T03:18:24;26.48;;;19.35;;
11681;SDS011;5897;42.640;23.310;2023-02-28T03:21:02;37.92;;;19.65;;
11681;SDS011;5897;42.640;23.310;2023-02-28T03:23:37;29.70;;;20.63;;
11681;SDS011;5897;42.640;23.310;2023-02-28T03:26:11;57.05;;;20.15;;
11681;SDS011;5897;42.640;23.310;2023-02-28T03:28:48;57.63;;;21.85;;
11681;SDS011;5897;42.640;23.310;2023-02-28T03:31:23;33.78;;;18.83;;
11681;SDS011;5897;42.640;23.310;2023-02-28T03:33:58;49.67;;;20.42;;
11681;SDS011;5897;42.640;23.310;2023-02-28T03:36:32;45.33;;;20.00;;
11681;SDS011;5897;42.640;23.310;2023-02-28T03:39:09;33.55;;;19.27;;
11681;SDS011;5897;42.640;23.310;2023-02-28T03:41:42;28.90;;;18.83;;
11681;SDS011;5897;42.640;23.310;2023-02-28T03:44:16;36.85;;;19.52;;
11681;SDS011;5897;42.640;23.310;2023-02-28T03:46:48;38.25;;;20.00;;
11681;SDS011;5897;42.640;23.310;2023-02-28T03:49:20;65.38;;;19.83;;
11681;SDS011;5897;42.640;23.310;2023-02-28T03:51:52;29.42;;;19.73;;
11681;SDS011;5897;42.640;23.310;2023-02-28T03:54:23;26.65;;;17.77;;
11681;SDS011;5897;42.640;23.310;2023-02-28T03:56:56;21.35;;;15.82;;
11681;SDS011;5897;42.640;23.310;2023-02-28T03:59:27;23.88;;;16.30;;
11681;SDS011;5897;42.640;23.310;2023-02-28T04:01:56;21.58;;;15.80;;
11681;SDS011;5897;42.640;23.310;2023-02-28T04:04:24;23.10;;;16.92;;
11681;SDS011;5897;42.640;23.310;2023-02-28T04:06:52;23.88;;;16.73;;
11681;SDS011;5897;42.640;23.310;2023-02-28T04:09:28;23.48;;;16.60;;
11681;SDS011;5897;42.640;23.310;2023-02-28T04:11:54;25.90;;;16.23;;
11681;SDS011;5897;42.640;23.310;2023-02-28T04:14:21;24.02;;;15.93;;
11681;SDS011;5897;42.640;23.310;2023-02-28T04:16:49;25.95;;;15.35;;
11681;SDS011;5897;42.640;23.310;2023-02-28T04:19:17;56.53;;;14.77;;
11681;SDS011;5897;42.640;23.310;2023-02-28T04:21:44;21.95;;;16.73;;
11681;SDS011;5897;42.640;23.310;2023-02-28T04:24:15;21.35;;;14.48;;
11681;SDS011;5897;42.640;23.310;2023-02-28T04:26:43;18.00;;;13.52;;
11681;SDS011;5897;42.640;23.310;2023-02-28T04:29:12;19.25;;;12.73;;
11681;SDS011;5897;42.640;23.310;2023-02-28T04:31:40;18.27;;;13.57;;
11681;SDS011;5897;42.640;23.310;2023-02-28T04:34:07;18.58;;;13.13;;
11681;SDS011;5897;42.640;23.310;2023-02-28T04:36:34;20.40;;;13.32;;
11681;SDS011;5897;42.640;23.310;2023-02-28T04:39:01;18.38;;;12.25;;
11681;SDS011;5897;42.640;23.310;2023-02-28T04:41:30;20.90;;;12.45;;
11681;SDS011;5897;42.640;23.310;2023-02-28T04:43:57;25.40;;;14.63;;
11681;SDS011;5897;42.640;23.310;2023-02-28T04:46:24;29.17;;;14.20;;
11681;SDS011;5897;42.640;23.310;2023-02-28T04:48:51;22.42;;;15.07;;
11681;SDS011;5897;42.640;23.310;2023-02-28T04:51:18;20.98;;;15.13;;
11681;SDS011;5897;42.640;23.310;2023-02-28T04:53:45;33.92;;;15.88;;
11681;SDS011;5897;42.640;23.310;2023-02-28T04:56:13;25.30;;;14.85;;
11681;SDS011;5897;42.640;23.310;2023-02-28T04:58:43;24.02;;;15.40;;
11681;SDS011;5897;42.640;23.310;2023-02-28T05:01:18;22.85;;;15.38;;
11681;SDS011;5897;42.640;23.310;2023-02-28T05:03:47;23.35;;;14.80;;
11681;SDS011;5897;42.640;23.310;2023-02-28T05:06:14;24.17;;;15.32;;
11681;SDS011;5897;42.640;23.310;2023-02-28T05:08:42;26.85;;;15.93;;
11681;SDS011;5897;42.640;23.310;2023-02-28T05:11:13;52.30;;;16.08;;
11681;SDS011;5897;42.640;23.310;2023-02-28T05:13:44;24.73;;;15.57;;
11681;SDS011;5897;42.640;23.310;2023-02-28T05:16:11;28.88;;;16.40;;
11681;SDS011;5897;42.640;23.310;2023-02-28T05:18:38;49.58;;;16.52;;
11681;SDS011;5897;42.640;23.310;2023-02-28T05:21:05;25.25;;;15.25;;
11681;SDS011;5897;42.640;23.310;2023-02-28T05:23:32;21.55;;;14.35;;
11681;SDS011;5897;42.640;23.310;2023-02-28T05:25:59;27.42;;;17.67;;
11681;SDS011;5897;42.640;23.310;2023-02-28T05:28:25;38.05;;;25.48;;
11681;SDS011;5897;42.640;23.310;2023-02-28T05:30:54;29.45;;;16.90;;
11681;SDS011;5897;42.640;23.310;2023-02-28T05:33:20;41.63;;;27.90;;
11681;SDS011;5897;42.640;23.310;2023-02-28T05:35:47;35.63;;;23.48;;
11681;SDS011;5897;42.640;23.310;2023-02-28T05:38:14;25.58;;;17.27;;
11681;SDS011;5897;42.640;23.310;2023-02-28T05:40:42;27.15;;;17.08;;
11681;SDS011;5897;42.640;23.310;2023-02-28T05:43:10;22.55;;;15.13;;
11681;SDS011;5897;42.640;23.310;2023-02-28T05:45:38;21.70;;;14.80;;
11681;SDS011;5897;42.640;23.310;2023-02-28T05:48:06;24.50;;;17.27;;
11681;SDS011;5897;42.640;23.310;2023-02-28T05:50:34;23.52;;;16.13;;
11681;SDS011;5897;42.640;23.310;2023-02-28T05:53:01;25.00;;;16.63;;
11681;SDS011;5897;42.640;23.310;2023-02-28T05:55:27;33.15;;;21.52;;
11681;SDS011;5897;42.640;23.310;2023-02-28T05:57:54;36.03;;;24.85;;
11681;SDS011;5897;42.640;23.310;2023-02-28T06:00:21;26.85;;;19.38;;
11681;SDS011;5897;42.640;23.310;2023-02-28T06:02:49;24.08;;;18.05;;
11681;SDS011;5897;42.640;23.310;2023-02-28T06:05:18;24.50;;;17.02;;
11681;SDS011;5897;42.640;23.310;2023-02-28T06:07:44;24.48;;;16.10;;
11681;SDS011;5897;42.640;23.310;2023-02-28T06:10:11;22.85;;;17.10;;
11681;SDS011;5897;42.640;23.310;2023-02-28T06:12:39;24.23;;;17.58;;
11681;SDS011;5897;42.640;23.310;2023-02-28T06:15:07;22.23;;;16.95;;
11681;SDS011;5897;42.640;23.310;2023-02-28T06:17:39;24.27;;;18.05;;
11681;SDS011;5897;42.640;23.310;2023-02-28T06:20:07;24.45;;;17.77;;
11681;SDS011;5897;42.640;23.310;2023-02-28T06:22:37;23.40;;;18.13;;
11681;SDS011;5897;42.640;23.310;2023-02-28T06:25:04;25.00;;;17.92;;
11681;SDS011;5897;42.640;23.310;2023-02-28T06:27:32;26.52;;;18.48;;
11681;SDS011;5897;42.640;23.310;2023-02-28T06:30:06;22.65;;;17.15;;
11681;SDS011;5897;42.640;23.310;2023-02-28T06:32:34;23.95;;;18.05;;
11681;SDS011;5897;42.640;23.310;2023-02-28T06:35:01;21.58;;;15.93;;
11681;SDS011;5897;42.640;23.310;2023-02-28T06:37:28;23.13;;;15.88;;
11681;SDS011;5897;42.640;23.310;2023-02-28T06:39:58;23.40;;;16.85;;
11681;SDS011;5897;42.640;23.310;2023-02-28T06:42:25;25.10;;;17.10;;
11681;SDS011;5897;42.640;23.310;2023-02-28T06:44:53;24.05;;;17.70;;
11681;SDS011;5897;42.640;23.310;2023-02-28T06:47:21;24.67;;;18.10;;
11681;SDS011;5897;42.640;23.310;2023-02-28T06:49:48;25.27;;;18.27;;
11681;SDS011;5897;42.640;23.310;2023-02-28T06:52:14;27.08;;;18.92;;
11681;SDS011;5897;42.640;23.310;2023-02-28T06:54:41;25.30;;;18.80;;
11681;SDS011;5897;42.640;23.310;2023-02-28T06:57:09;29.67;;;19.77;;
11681;SDS011;5897;42.640;23.310;2023-02-28T06:59:36;25.33;;;19.70;;
11681;SDS011;5897;42.640;23.310;2023-02-28T07:02:03;27.95;;;20.58;;
11681;SDS011;5897;42.640;23.310;2023-02-28T07:04:31;29.20;;;21.63;;
11681;SDS011;5897;42.640;23.310;2023-02-28T07:06:58;27.85;;;20.70;;
11681;SDS011;5897;42.640;23.310;2023-02-28T07:09:25;28.08;;;20.38;;
11681;SDS011;5897;42.640;23.310;2023-02-28T07:11:54;31.98;;;19.98;;
11681;SDS011;5897;42.640;23.310;2023-02-28T07:14:23;24.48;;;18.63;;
11681;SDS011;5897;42.640;23.310;2023-02-28T07:16:49;23.80;;;18.42;;
11681;SDS011;5897;42.640;23.310;2023-02-28T07:19:16;31.33;;;21.02;;
11681;SDS011;5897;42.640;23.310;2023-02-28T07:21:43;28.13;;;19.35;;
11681;SDS011;5897;42.640;23.310;2023-02-28T07:24:10;29.95;;;21.65;;
11681;SDS011;5897;42.640;23.310;2023-02-28T07:26:37;31.77;;;22.73;;
11681;SDS011;5897;42.640;23.310;2023-02-28T07:29:04;35.75;;;24.75;;
11681;SDS011;5897;42.640;23.310;2023-02-28T07:31:32;35.35;;;25.55;;
11681;SDS011;5897;42.640;23.310;2023-02-28T07:33:59;40.58;;;25.58;;
11681;SDS011;5897;42.640;23.310;2023-02-28T07:36:26;37.75;;;25.27;;
11681;SDS011;5897;42.640;23.310;2023-02-28T07:38:52;33.70;;;23.83;;
11681;SDS011;5897;42.640;23.310;2023-02-28T07:41:21;36.83;;;26.00;;
11681;SDS011;5897;42.640;23.310;2023-02-28T07:43:49;34.30;;;25.10;;
11681;SDS011;5897;42.640;23.310;2023-02-28T07:46:19;34.67;;;24.67;;
11681;SDS011;5897;42.640;23.310;2023-02-28T07:48:48;39.38;;;26.20;;
11681;SDS011;5897;42.640;23.310;2023-02-28T07:51:15;38.65;;;25.35;;
11681;SDS011;5897;42.640;23.310;2023-02-28T07:53:41;37.53;;;25.40;;
11681;SDS011;5897;42.640;23.310;2023-02-28T07:56:08;37.72;;;25.27;;
11681;SDS011;5897;42.640;23.310;2023-02-28T07:58:35;38.38;;;25.42;;
11681;SDS011;5897;42.640;23.310;2023-02-28T08:01:06;35.25;;;24.83;;
11681;SDS011;5897;42.640;23.310;2023-02-28T08:03:33;36.15;;;26.45;;
11681;SDS011;5897;42.640;23.310;2023-02-28T08:06:02;36.88;;;25.10;;
11681;SDS011;5897;42.640;23.310;2023-02-28T08:08:29;34.92;;;24.92;;
11681;SDS011;5897;42.640;23.310;2023-02-28T08:10:57;37.35;;;25.52;;
11681;SDS011;5897;42.640;23.310;2023-02-28T08:13:24;34.72;;;24.23;;
11681;SDS011;5897;42.640;23.310;2023-02-28T08:15:52;33.40;;;25.25;;
11681;SDS011;5897;42.640;23.310;2023-02-28T08:18:19;37.33;;;25.10;;
11681;SDS011;5897;42.640;23.310;2023-02-28T08:20:46;41.22;;;24.98;;
11681;SDS011;5897;42.640;23.310;2023-02-28T08:23:14;34.25;;;24.20;;
11681;SDS011;5897;42.640;23.310;2023-02-28T08:25:41;33.60;;;24.15;;
11681;SDS011;5897;42.640;23.310;2023-02-28T08:28:08;36.50;;;24.35;;
11681;SDS011;5897;42.640;23.310;2023-02-28T08:30:35;34.42;;;24.13;;
11681;SDS011;5897;42.640;23.310;2023-02-28T08:33:01;36.17;;;24.40;;
11681;SDS011;5897;42.640;23.310;2023-02-28T08:35:28;38.65;;;24.63;;
11681;SDS011;5897;42.640;23.310;2023-02-28T08:37:55;34.88;;;24.27;;
11681;SDS011;5897;42.640;23.310;2023-02-28T08:40:25;37.60;;;24.70;;
11681;SDS011;5897;42.640;23.310;2023-02-28T08:42:52;38.83;;;25.17;;
11681;SDS011;5897;42.640;23.310;2023-02-28T08:45:18;44.78;;;25.35;;
11681;SDS011;5897;42.640;23.310;2023-02-28T08:47:45;39.08;;;25.30;;
11681;SDS011;5897;42.640;23.310;2023-02-28T08:50:12;37.88;;;25.25;;
11681;SDS011;5897;42.640;23.310;2023-02-28T08:52:41;38.85;;;25.92;;
11681;SDS011;5897;42.640;23.310;2023-02-28T08:55:09;43.08;;;28.90;;
11681;SDS011;5897;42.640;23.310;2023-02-28T08:57:37;46.85;;;31.48;;
11681;SDS011;5897;42.640;23.310;2023-02-28T09:00:04;50.15;;;32.92;;
11681;SDS011;5897;42.640;23.310;2023-02-28T09:02:33;59.15;;;34.20;;
11681;SDS011;5897;42.640;23.310;2023-02-28T09:05:00;56.78;;;34.05;;
11681;SDS011;5897;42.640;23.310;2023-02-28T09:07:28;55.38;;;33.85;;
11681;SDS011;5897;42.640;23.310;2023-02-28T09:09:54;61.17;;;34.97;;
11681;SDS011;5897;42.640;23.310;2023-02-28T09:12:23;55.15;;;35.03;;
11681;SDS011;5897;42.640;23.310;2023-02-28T09:14:52;59.97;;;35.42;;
11681;SDS011;5897;42.640;23.310;2023-02-28T09:17:19;54.22;;;33.33;;
11681;SDS011;5897;42.640;23.310;2023-02-28T09:19:47;54.15;;;31.58;;
11681;SDS011;5897;42.640;23.310;2023-02-28T09:22:14;49.70;;;32.50;;
11681;SDS011;5897;42.640;23.310;2023-02-28T09:24:41;49.20;;;31.73;;
11681;SDS011;5897;42.640;23.310;2023-02-28T09:27:09;52.13;;;33.28;;
11681;SDS011;5897;42.640;23.310;2023-02-28T09:29:36;49.90;;;31.52;;
11681;SDS011;5897;42.640;23.310;2023-02-28T09:32:04;47.03;;;29.40;;
11681;SDS011;5897;42.640;23.310;2023-02-28T09:34:31;45.15;;;29.77;;
11681;SDS011;5897;42.640;23.310;2023-02-28T09:36:58;45.85;;;28.27;;
11681;SDS011;5897;42.640;23.310;2023-02-28T09:39:25;47.58;;;29.42;;
11681;SDS011;5897;42.640;23.310;2023-02-28T09:41:54;44.40;;;29.35;;
11681;SDS011;5897;42.640;23.310;2023-02-28T09:44:25;44.17;;;28.95;;
11681;SDS011;5897;42.640;23.310;2023-02-28T09:46:57;45.33;;;29.10;;
11681;SDS011;5897;42.640;23.310;2023-02-28T09:49:31;44.83;;;28.42;;
11681;SDS011;5897;42.640;23.310;2023-02-28T09:52:04;43.58;;;27.67;;
11681;SDS011;5897;42.640;23.310;2023-02-28T09:54:34;42.47;;;28.77;;
11681;SDS011;5897;42.640;23.310;2023-02-28T09:57:04;43.92;;;29.00;;
11681;SDS011;5897;42.640;23.310;2023-02-28T10:02:50;41.03;;;28.05;;
11681;SDS011;5897;42.640;23.310;2023-02-28T10:05:30;46.05;;;27.90;;
11681;SDS011;5897;42.640;23.310;2023-02-28T10:08:04;44.67;;;28.00;;
11681;SDS011;5897;42.640;23.310;2023-02-28T10:10:37;45.55;;;26.38;;
11681;SDS011;5897;42.640;23.310;2023-02-28T10:13:17;42.10;;;26.73;;
11681;SDS011;5897;42.640;23.310;2023-02-28T10:15:52;44.58;;;26.88;;
11681;SDS011;5897;42.640;23.310;2023-02-28T10:18:24;41.55;;;26.83;;
11681;SDS011;5897;42.640;23.310;2023-02-28T10:20:57;47.17;;;26.95;;
11681;SDS011;5897;42.640;23.310;2023-02-28T10:23:27;36.78;;;25.75;;
11681;SDS011;5897;42.640;23.310;2023-02-28T10:25:59;38.20;;;25.63;;
11681;SDS011;5897;42.640;23.310;2023-02-28T10:28:28;41.67;;;26.60;;
11681;SDS011;5897;42.640;23.310;2023-02-28T10:30:56;30.50;;;18.23;;
11681;SDS011;5897;42.640;23.310;2023-02-28T10:33:25;23.40;;;13.43;;
11681;SDS011;5897;42.640;23.310;2023-02-28T10:35:58;19.65;;;12.35;;
11681;SDS011;5897;42.640;23.310;2023-02-28T10:38:26;20.70;;;12.77;;
11681;SDS011;5897;42.640;23.310;2023-02-28T10:41:03;26.40;;;12.68;;
11681;SDS011;5897;42.640;23.310;2023-02-28T10:43:31;24.88;;;12.77;;
11681;SDS011;5897;42.640;23.310;2023-02-28T10:45:59;19.58;;;12.27;;
11681;SDS011;5897;42.640;23.310;2023-02-28T10:48:33;21.05;;;12.68;;
11681;SDS011;5897;42.640;23.310;2023-02-28T10:51:05;19.15;;;12.43;;
11681;SDS011;5897;42.640;23.310;2023-02-28T10:53:35;20.52;;;11.98;;
11681;SDS011;5897;42.640;23.310;2023-02-28T10:56:12;23.60;;;13.02;;
11681;SDS011;5897;42.640;23.310;2023-02-28T10:58:47;21.40;;;12.40;;
11681;SDS011;5897;42.640;23.310;2023-02-28T11:01:17;20.67;;;11.38;;
11681;SDS011;5897;42.640;23.310;2023-02-28T11:03:45;15.18;;;8.57;;
11681;SDS011;5897;42.640;23.310;2023-02-28T11:06:15;21.23;;;8.30;;
11681;SDS011;5897;42.640;23.310;2023-02-28T11:08:44;18.98;;;7.78;;
11681;SDS011;5897;42.640;23.310;2023-02-28T11:11:13;22.67;;;11.38;;
11681;SDS011;5897;42.640;23.310;2023-02-28T11:13:41;16.42;;;8.90;;
11681;SDS011;5897;42.640;23.310;2023-02-28T11:16:11;16.42;;;9.07;;
11681;SDS011;5897;42.640;23.310;2023-02-28T11:18:41;19.95;;;8.85;;
11681;SDS011;5897;42.640;23.310;2023-02-28T11:21:15;22.50;;;8.75;;
11681;SDS011;5897;42.640;23.310;2023-02-28T11:23:45;20.27;;;10.10;;
11681;SDS011;5897;42.640;23.310;2023-02-28T11:26:15;21.55;;;10.07;;
11681;SDS011;5897;42.640;23.310;2023-02-28T11:29:05;16.48;;;8.75;;
11681;SDS011;5897;42.640;23.310;2023-02-28T11:31:37;20.90;;;8.95;;
11681;SDS011;5897;42.640;23.310;2023-02-28T11:34:20;14.75;;;9.02;;
11681;SDS011;5897;42.640;23.310;2023-02-28T11:36:52;19.52;;;10.57;;
11681;SDS011;5897;42.640;23.310;2023-02-28T11:39:21;18.25;;;11.80;;
11681;SDS011;5897;42.640;23.310;2023-02-28T11:42:02;18.38;;;10.07;;
11681;SDS011;5897;42.640;23.310;2023-02-28T11:44:42;16.67;;;9.70;;
11681;SDS011;5897;42.640;23.310;2023-02-28T11:47:21;24.73;;;10.20;;
11681;SDS011;5897;42.640;23.310;2023-02-28T11:49:58;22.10;;;11.70;;
11681;SDS011;5897;42.640;23.310;2023-02-28T11:52:48;16.70;;;10.25;;
11681;SDS011;5897;42.640;23.310;2023-02-28T11:55:19;14.82;;;9.05;;
11681;SDS011;5897;42.640;23.310;2023-02-28T11:57:53;20.35;;;10.02;;
11681;SDS011;5897;42.640;23.310;2023-02-28T12:00:33;16.98;;;9.80;;
11681;SDS011;5897;42.640;23.310;2023-02-28T12:03:10;18.73;;;10.30;;
11681;SDS011;5897;42.640;23.310;2023-02-28T12:05:50;23.35;;;12.07;;
11681;SDS011;5897;42.640;23.310;2023-02-28T12:08:31;17.67;;;11.20;;
11681;SDS011;5897;42.640;23.310;2023-02-28T12:11:11;20.30;;;10.50;;
11681;SDS011;5897;42.640;23.310;2023-02-28T12:13:46;24.35;;;11.05;;
11681;SDS011;5897;42.640;23.310;2023-02-28T12:19:16;17.50;;;10.10;;
11681;SDS011;5897;42.640;23.310;2023-02-28T12:21:58;17.35;;;10.70;;
11681;SDS011;5897;42.640;23.310;2023-02-28T12:27:42;20.77;;;12.27;;
11681;SDS011;5897;42.640;23.310;2023-02-28T12:30:13;20.70;;;11.32;;
11681;SDS011;5897;42.640;23.310;2023-02-28T12:32:46;21.45;;;11.02;;
11681;SDS011;5897;42.640;23.310;2023-02-28T12:35:18;21.23;;;11.30;;
11681;SDS011;5897;42.640;23.310;2023-02-28T12:37:49;24.80;;;12.10;;
11681;SDS011;5897;42.640;23.310;2023-02-28T12:40:23;22.35;;;12.30;;
11681;SDS011;5897;42.640;23.310;2023-02-28T12:42:57;18.88;;;10.70;;
11681;SDS011;5897;42.640;23.310;2023-02-28T12:45:27;25.02;;;11.23;;
11681;SDS011;5897;42.640;23.310;2023-02-28T12:48:04;17.30;;;11.10;;
11681;SDS011;5897;42.640;23.310;2023-02-28T12:50:35;25.75;;;12.23;;
11681;SDS011;5897;42.640;23.310;2023-02-28T12:53:03;21.05;;;11.30;;
11681;SDS011;5897;42.640;23.310;2023-02-28T12:55:38;21.98;;;12.57;;
11681;SDS011;5897;42.640;23.310;2023-02-28T12:58:15;27.00;;;13.50;;
11681;SDS011;5897;42.640;23.310;2023-02-28T13:00:55;19.17;;;12.18;;
11681;SDS011;5897;42.640;23.310;2023-02-28T13:03:58;23.92;;;11.95;;
11681;SDS011;5897;42.640;23.310;2023-02-28T13:06:41;18.45;;;10.50;;
11681;SDS011;5897;42.640;23.310;2023-02-28T13:09:20;22.10;;;11.68;;
11681;SDS011;5897;42.640;23.310;2023-02-28T13:11:47;22.05;;;12.05;;
11681;SDS011;5897;42.640;23.310;2023-02-28T13:14:24;15.80;;;10.13;;
11681;SDS011;5897;42.640;23.310;2023-02-28T13:16:55;20.17;;;10.50;;
11681;SDS011;5897;42.640;23.310;2023-02-28T13:19:24;18.13;;;10.98;;
11681;SDS011;5897;42.640;23.310;2023-02-28T13:21:54;19.70;;;10.75;;
11681;SDS011;5897;42.640;23.310;2023-02-28T13:24:38;18.25;;;10.63;;
11681;SDS011;5897;42.640;23.310;2023-02-28T13:27:11;17.98;;;11.82;;
11681;SDS011;5897;42.640;23.310;2023-02-28T13:29:51;19.67;;;10.38;;
11681;SDS011;5897;42.640;23.310;2023-02-28T13:35:14;17.70;;;9.52;;
11681;SDS011;5897;42.640;23.310;2023-02-28T13:38:08;22.55;;;9.18;;
11681;SDS011;5897;42.640;23.310;2023-02-28T13:40:50;17.73;;;10.52;;
11681;SDS011;5897;42.640;23.310;2023-02-28T13:43:17;20.48;;;10.13;;
11681;SDS011;5897;42.640;23.310;2023-02-28T13:46:06;19.63;;;11.05;;
11681;SDS011;5897;42.640;23.310;2023-02-28T13:48:37;21.67;;;9.82;;
11681;SDS011;5897;42.640;23.310;2023-02-28T13:54:06;21.63;;;10.27;;
11681;SDS011;5897;42.640;23.310;2023-02-28T13:56:45;17.02;;;9.95;;
11681;SDS011;5897;42.640;23.310;2023-02-28T13:59:21;21.95;;;10.07;;
11681;SDS011;5897;42.640;23.310;2023-02-28T14:02:07;19.58;;;11.23;;
11681;SDS011;5897;42.640;23.310;2023-02-28T14:04:57;19.77;;;11.35;;
11681;SDS011;5897;42.640;23.310;2023-02-28T14:07:28;16.58;;;8.98;;
11681;SDS011;5897;42.640;23.310;2023-02-28T14:09:59;18.08;;;9.50;;
11681;SDS011;5897;42.640;23.310;2023-02-28T14:15:41;25.50;;;10.05;;
11681;SDS011;5897;42.640;23.310;2023-02-28T14:18:27;18.13;;;9.15;;
11681;SDS011;5897;42.640;23.310;2023-02-28T14:20:58;15.20;;;8.38;;
11681;SDS011;5897;42.640;23.310;2023-02-28T14:23:46;16.20;;;8.82;;
11681;SDS011;5897;42.640;23.310;2023-02-28T14:26:28;17.98;;;9.25;;
11681;SDS011;5897;42.640;23.310;2023-02-28T14:29:17;16.80;;;8.20;;
11681;SDS011;5897;42.640;23.310;2023-02-28T14:32:02;18.20;;;8.80;;
11681;SDS011;5897;42.640;23.310;2023-02-28T14:34:39;13.60;;;8.00;;
11681;SDS011;5897;42.640;23.310;2023-02-28T14:37:13;14.38;;;7.95;;
11681;SDS011;5897;42.640;23.310;2023-02-28T14:39:45;16.40;;;8.43;;
11681;SDS011;5897;42.640;23.310;2023-02-28T14:42:27;17.75;;;8.85;;
11681;SDS011;5897;42.640;23.310;2023-02-28T14:44:55;18.45;;;9.05;;
11681;SDS011;5897;42.640;23.310;2023-02-28T14:47:23;16.00;;;8.50;;
11681;SDS011;5897;42.640;23.310;2023-02-28T14:49:55;13.77;;;8.50;;
11681;SDS011;5897;42.640;23.310;2023-02-28T14:52:22;15.27;;;7.43;;
11681;SDS011;5897;42.640;23.310;2023-02-28T14:54:52;15.38;;;8.50;;
11681;SDS011;5897;42.640;23.310;2023-02-28T14:57:21;19.42;;;9.27;;
11681;SDS011;5897;42.640;23.310;2023-02-28T14:59:56;17.73;;;8.90;;
11681;SDS011;5897;42.640;23.310;2023-02-28T15:02:25;16.25;;;8.02;;
11681;SDS011;5897;42.640;23.310;2023-02-28T15:04:58;19.50;;;7.82;;
11681;SDS011;5897;42.640;23.310;2023-02-28T15:07:26;14.38;;;7.55;;
11681;SDS011;5897;42.640;23.310;2023-02-28T15:10:11;23.75;;;17.77;;
11681;SDS011;5897;42.640;23.310;2023-02-28T15:12:44;79.25;;;46.80;;
11681;SDS011;5897;42.640;23.310;2023-02-28T15:15:17;48.88;;;28.67;;
11681;SDS011;5897;42.640;23.310;2023-02-28T15:17:46;24.77;;;13.00;;